Time;durP1;ratioP1;P1;durP2;ratioP2;P2;SDS_P1;SDS_P2;PMS_P1;PMS_P2;Temp;Humidity;BMP_temperature;BMP_pressure;BME280_temperature;BME280_humidity;BME280_pressure;Samples;Min_cycle;Max_cycle;Signal;HPM_P1;HPM_P2
2022/05/03 00:01:07;;;;;;;5.55;3.30;;;;;;;;;;5048262;28;20033;-58
2022/05/03 00:03:43;;;;;;;4.32;3.10;;;;;;;;;;5040226;28;20033;-59
2022/05/03 00:06:23;;;;;;;4.10;3.10;;;;;;;;;;5043583;28;20112;-59
2022/05/03 00:08:53;;;;;;;4.65;3.42;;;;;;;;;;5047134;28;20112;-58
2022/05/03 00:11:40;;;;;;;5.80;3.38;;;;;;;;;;5047960;28;20049;-59
2022/05/03 00:14:25;;;;;;;5.38;3.28;;;;;;;;;;5049167;28;20041;-59
2022/05/03 00:16:52;;;;;;;5.28;3.15;;;;;;;;;;5046215;28;20084;-58
2022/05/03 00:19:18;;;;;;;4.60;3.00;;;;;;;;;;5051325;28;20106;-59
2022/05/03 00:21:45;;;;;;;5.05;3.20;;;;;;;;;;5046495;28;20429;-58
2022/05/03 00:24:11;;;;;;;5.15;3.28;;;;;;;;;;5053892;28;20091;-58
2022/05/03 00:26:37;;;;;;;5.45;3.30;;;;;;;;;;5051932;28;20029;-58
2022/05/03 00:29:04;;;;;;;5.65;3.65;;;;;;;;;;5046388;28;20051;-58
2022/05/03 00:31:30;;;;;;;5.47;3.67;;;;;;;;;;5054265;28;20123;-58
2022/05/03 00:33:57;;;;;;;6.38;3.92;;;;;;;;;;5036593;28;20045;-58
2022/05/03 00:36:23;;;;;;;5.85;3.65;;;;;;;;;;5052342;28;20083;-58
2022/05/03 00:38:50;;;;;;;4.03;3.20;;;;;;;;;;5050616;28;20044;-58
2022/05/03 00:41:20;;;;;;;6.45;3.63;;;;;;;;;;5052118;28;20048;-58
2022/05/03 00:43:55;;;;;;;4.88;3.50;;;;;;;;;;5051221;28;20037;-58
2022/05/03 00:46:23;;;;;;;5.05;3.47;;;;;;;;;;5051733;28;20064;-58
2022/05/03 00:48:52;;;;;;;7.15;3.85;;;;;;;;;;5051605;28;20044;-59
2022/05/03 00:51:24;;;;;;;6.22;4.00;;;;;;;;;;5045193;28;20080;-59
2022/05/03 00:54:00;;;;;;;5.75;4.22;;;;;;;;;;5053985;28;20052;-58
2022/05/03 00:56:26;;;;;;;6.45;3.45;;;;;;;;;;5051997;28;20564;-59
2022/05/03 00:58:54;;;;;;;5.97;3.72;;;;;;;;;;5052918;28;20040;-58
2022/05/03 01:01:27;;;;;;;7.00;4.25;;;;;;;;;;5052249;28;20037;-58
2022/05/03 01:03:56;;;;;;;6.68;4.50;;;;;;;;;;5035776;28;20037;-58
2022/05/03 01:06:48;;;;;;;5.65;3.72;;;;;;;;;;5052268;28;20037;-58
2022/05/03 01:09:18;;;;;;;6.97;4.47;;;;;;;;;;5049312;28;20033;-58
2022/05/03 01:11:54;;;;;;;4.75;3.85;;;;;;;;;;5046207;28;20091;-58
2022/05/03 01:14:32;;;;;;;5.75;4.40;;;;;;;;;;5042403;28;20048;-59
2022/05/03 01:17:04;;;;;;;6.50;4.35;;;;;;;;;;5053054;28;20029;-58
2022/05/03 01:19:34;;;;;;;4.93;3.67;;;;;;;;;;5048090;28;20033;-58
2022/05/03 01:22:19;;;;;;;4.57;3.33;;;;;;;;;;5052752;28;20414;-58
2022/05/03 01:24:51;;;;;;;5.68;3.80;;;;;;;;;;5051402;28;20401;-59
2022/05/03 01:27:17;;;;;;;5.10;3.55;;;;;;;;;;5052621;28;20044;-58
2022/05/03 01:29:46;;;;;;;5.95;4.07;;;;;;;;;;5052210;28;20112;-58
2022/05/03 01:32:12;;;;;;;4.95;4.10;;;;;;;;;;5051530;28;20120;-59
2022/05/03 01:34:38;;;;;;;6.10;3.78;;;;;;;;;;5050564;28;20068;-58
2022/05/03 01:37:18;;;;;;;8.10;4.63;;;;;;;;;;5062380;22;20377;-58
2022/05/03 01:39:57;;;;;;;4.95;4.05;;;;;;;;;;5032425;28;20041;-58
2022/05/03 01:42:23;;;;;;;5.00;3.70;;;;;;;;;;5029225;28;20499;-59
2022/05/03 01:45:02;;;;;;;5.10;3.75;;;;;;;;;;5024818;28;20045;-58
2022/05/03 01:47:34;;;;;;;6.28;3.95;;;;;;;;;;5033171;28;20051;-58
2022/05/03 01:50:21;;;;;;;6.43;4.32;;;;;;;;;;5025692;28;20049;-58
2022/05/03 01:52:50;;;;;;;8.45;4.65;;;;;;;;;;5024844;28;20045;-59
2022/05/03 01:55:30;;;;;;;6.22;4.55;;;;;;;;;;5032206;28;20037;-59
2022/05/03 01:58:15;;;;;;;8.40;4.85;;;;;;;;;;5015190;28;20044;-58
2022/05/03 02:00:43;;;;;;;7.65;5.22;;;;;;;;;;5025398;28;20049;-58
2022/05/03 02:03:12;;;;;;;7.40;5.20;;;;;;;;;;5024145;28;20065;-58
2022/05/03 02:05:59;;;;;;;9.15;5.95;;;;;;;;;;5018543;28;20131;-58
2022/05/03 02:08:28;;;;;;;7.75;5.22;;;;;;;;;;5023667;28;20079;-59
2022/05/03 02:11:23;;;;;;;6.45;4.80;;;;;;;;;;5023840;28;20488;-59
2022/05/03 02:16:54;;;;;;;7.05;5.50;;;;;;;;;;5012835;28;20046;-59
2022/05/03 02:19:38;;;;;;;7.57;5.28;;;;;;;;;;5018321;28;20042;-59
2022/05/03 02:22:18;;;;;;;9.80;5.93;;;;;;;;;;5030621;28;20038;-58
2022/05/03 02:25:03;;;;;;;8.20;5.30;;;;;;;;;;5023271;28;20483;-58
2022/05/03 02:27:31;;;;;;;9.10;5.43;;;;;;;;;;5023130;28;20037;-59
2022/05/03 02:29:58;;;;;;;6.95;5.47;;;;;;;;;;5028844;28;20037;-58
2022/05/03 02:32:34;;;;;;;6.43;4.75;;;;;;;;;;5015413;28;20079;-59
2022/05/03 02:35:02;;;;;;;8.45;4.90;;;;;;;;;;5024510;28;20084;-58
2022/05/03 02:37:35;;;;;;;5.88;4.47;;;;;;;;;;5024179;28;20037;-58
2022/05/03 02:40:07;;;;;;;6.38;4.43;;;;;;;;;;5018679;28;20042;-59
2022/05/03 02:42:34;;;;;;;6.97;4.65;;;;;;;;;;5026671;28;20053;-59
2022/05/03 02:45:00;;;;;;;6.78;4.70;;;;;;;;;;5013872;28;20038;-58
2022/05/03 02:47:26;;;;;;;5.97;4.28;;;;;;;;;;5024415;28;20092;-59
2022/05/03 02:49:52;;;;;;;6.72;5.30;;;;;;;;;;5005205;28;20049;-58
2022/05/03 02:52:21;;;;;;;6.32;4.85;;;;;;;;;;5014937;28;20041;-59
2022/05/03 02:54:51;;;;;;;5.65;4.28;;;;;;;;;;5030658;28;20064;-59
2022/05/03 02:57:31;;;;;;;5.80;4.00;;;;;;;;;;5024825;28;20044;-58
2022/05/03 03:03:07;;;;;;;10.05;5.47;;;;;;;;;;5013491;28;20038;-58
2022/05/03 03:05:36;;;;;;;7.53;5.13;;;;;;;;;;5023879;28;20072;-59
2022/05/03 03:08:03;;;;;;;8.50;5.60;;;;;;;;;;5023241;28;20033;-58
2022/05/03 03:10:38;;;;;;;10.52;6.20;;;;;;;;;;5020352;28;20033;-58
2022/05/03 03:13:04;;;;;;;8.85;5.43;;;;;;;;;;5022810;28;20113;-58
2022/05/03 03:15:30;;;;;;;9.05;6.05;;;;;;;;;;5031381;28;20112;-59
2022/05/03 03:18:00;;;;;;;8.57;6.20;;;;;;;;;;5021046;28;20045;-58
2022/05/03 03:20:29;;;;;;;9.00;6.40;;;;;;;;;;5021206;28;20041;-59
2022/05/03 03:22:55;;;;;;;9.25;5.47;;;;;;;;;;5020614;28;20038;-58
2022/05/03 03:25:22;;;;;;;9.57;6.47;;;;;;;;;;5030269;28;20514;-59
2022/05/03 03:27:49;;;;;;;8.73;6.03;;;;;;;;;;5028746;28;20069;-59
2022/05/03 03:30:16;;;;;;;8.82;6.28;;;;;;;;;;5028011;28;20037;-59
2022/05/03 03:32:46;;;;;;;8.15;6.13;;;;;;;;;;5022077;28;20037;-58
2022/05/03 03:35:13;;;;;;;10.65;6.68;;;;;;;;;;5013227;28;20042;-58
2022/05/03 03:37:41;;;;;;;7.72;5.43;;;;;;;;;;5026382;28;20040;-59
2022/05/03 03:40:08;;;;;;;9.88;5.82;;;;;;;;;;5022707;28;20069;-59
2022/05/03 03:42:34;;;;;;;10.07;6.43;;;;;;;;;;5016373;28;20520;-58
2022/05/03 03:45:01;;;;;;;7.60;5.72;;;;;;;;;;5016025;28;20567;-59
2022/05/03 03:47:28;;;;;;;6.72;5.35;;;;;;;;;;5016086;28;20034;-58
2022/05/03 03:49:56;;;;;;;8.27;5.32;;;;;;;;;;5018534;28;20033;-59
2022/05/03 03:52:23;;;;;;;7.80;5.93;;;;;;;;;;5022654;28;20496;-58
2022/05/03 03:54:49;;;;;;;9.65;6.10;;;;;;;;;;5015882;28;20403;-58
2022/05/03 03:57:16;;;;;;;9.80;6.70;;;;;;;;;;5032393;28;20116;-58
2022/05/03 03:59:42;;;;;;;11.95;7.53;;;;;;;;;;5033045;28;20511;-59
2022/05/03 04:02:08;;;;;;;8.60;6.55;;;;;;;;;;5029993;28;20049;-58
2022/05/03 04:04:38;;;;;;;8.88;6.72;;;;;;;;;;5005080;28;20029;-59
2022/05/03 04:07:04;;;;;;;9.95;7.10;;;;;;;;;;5032095;28;20037;-59
2022/05/03 04:09:30;;;;;;;11.60;7.30;;;;;;;;;;5027355;28;20034;-58
2022/05/03 04:11:58;;;;;;;9.95;7.18;;;;;;;;;;5021335;28;20036;-58
2022/05/03 04:14:24;;;;;;;11.82;7.70;;;;;;;;;;5028664;28;20045;-58
2022/05/03 04:16:50;;;;;;;14.25;8.10;;;;;;;;;;5027009;28;20116;-59
2022/05/03 04:19:16;;;;;;;11.70;7.50;;;;;;;;;;5028186;28;20503;-59
2022/05/03 04:21:42;;;;;;;11.40;7.22;;;;;;;;;;5026463;28;20092;-58
2022/05/03 04:24:08;;;;;;;9.60;7.35;;;;;;;;;;5032808;28;20029;-58
2022/05/03 04:26:35;;;;;;;11.55;8.27;;;;;;;;;;5025050;28;20534;-59
2022/05/03 04:29:01;;;;;;;10.93;7.50;;;;;;;;;;5029936;28;20033;-59
2022/05/03 04:31:28;;;;;;;10.02;6.40;;;;;;;;;;5029116;28;20049;-59
2022/05/03 04:33:54;;;;;;;10.65;7.28;;;;;;;;;;5029134;28;20104;-58
2022/05/03 04:36:21;;;;;;;10.38;7.18;;;;;;;;;;5033846;28;20398;-58
2022/05/03 04:38:47;;;;;;;11.88;6.70;;;;;;;;;;5027403;28;20487;-59
2022/05/03 04:41:14;;;;;;;10.60;7.45;;;;;;;;;;5024668;28;20554;-58
2022/05/03 04:43:40;;;;;;;12.20;7.82;;;;;;;;;;5008727;28;20072;-59
2022/05/03 04:46:05;;;;;;;9.98;7.05;;;;;;;;;;5024298;28;20072;-59
2022/05/03 04:48:31;;;;;;;10.02;7.25;;;;;;;;;;5022094;28;20398;-59
2022/05/03 04:50:57;;;;;;;11.05;8.10;;;;;;;;;;5023561;28;20048;-58
2022/05/03 04:53:24;;;;;;;11.00;7.00;;;;;;;;;;5027906;28;20132;-58
2022/05/03 04:55:50;;;;;;;12.48;7.55;;;;;;;;;;5032462;28;20407;-59
2022/05/03 04:58:16;;;;;;;10.80;6.90;;;;;;;;;;5023196;28;20041;-59
2022/05/03 05:00:42;;;;;;;10.77;8.10;;;;;;;;;;5025538;28;20059;-58
2022/05/03 05:03:08;;;;;;;10.43;7.13;;;;;;;;;;5027053;28;20152;-58
2022/05/03 05:05:34;;;;;;;11.85;8.10;;;;;;;;;;5024836;28;20037;-58
2022/05/03 05:08:07;;;;;;;12.27;7.40;;;;;;;;;;5025555;28;20048;-58
2022/05/03 05:10:33;;;;;;;11.13;8.55;;;;;;;;;;5021630;28;20034;-58
2022/05/03 05:13:00;;;;;;;11.60;7.75;;;;;;;;;;5020831;28;20041;-58
2022/05/03 05:15:27;;;;;;;13.80;8.15;;;;;;;;;;5030852;28;20487;-58
2022/05/03 05:17:54;;;;;;;13.13;8.35;;;;;;;;;;5031473;28;20030;-58
2022/05/03 05:20:20;;;;;;;10.75;8.23;;;;;;;;;;5016751;28;20060;-58
2022/05/03 05:22:46;;;;;;;12.93;8.50;;;;;;;;;;5025838;28;20040;-58
2022/05/03 05:25:13;;;;;;;12.27;8.43;;;;;;;;;;5030355;28;20030;-58
2022/05/03 05:27:39;;;;;;;11.73;8.77;;;;;;;;;;5030140;28;20061;-58
2022/05/03 05:30:09;;;;;;;13.60;9.20;;;;;;;;;;5025486;28;21453;-58
2022/05/03 05:32:35;;;;;;;12.98;9.48;;;;;;;;;;5027582;28;20041;-58
2022/05/03 05:35:01;;;;;;;14.23;8.95;;;;;;;;;;5031386;28;20518;-58
2022/05/03 05:37:27;;;;;;;16.70;9.50;;;;;;;;;;5025952;28;20038;-58
2022/05/03 05:39:53;;;;;;;13.50;9.80;;;;;;;;;;5026405;28;20112;-58
2022/05/03 05:42:19;;;;;;;17.92;11.55;;;;;;;;;;5022784;28;20479;-58
2022/05/03 05:44:45;;;;;;;15.50;10.88;;;;;;;;;;5028458;28;20120;-59
2022/05/03 05:47:11;;;;;;;16.80;11.93;;;;;;;;;;5029901;28;20113;-59
2022/05/03 05:49:37;;;;;;;16.60;12.52;;;;;;;;;;5027315;28;20116;-58
2022/05/03 05:54:48;;;;;;;20.75;13.73;;;;;;;;;;5025627;28;20080;-58
2022/05/03 05:57:14;;;;;;;21.35;14.15;;;;;;;;;;5021562;28;20065;-59
2022/05/03 05:59:40;;;;;;;20.80;14.80;;;;;;;;;;5022452;28;20037;-58
2022/05/03 06:02:06;;;;;;;23.05;15.15;;;;;;;;;;5023125;28;20045;-58
2022/05/03 06:04:33;;;;;;;22.80;14.98;;;;;;;;;;5026501;28;20422;-59
2022/05/03 06:06:59;;;;;;;24.10;16.70;;;;;;;;;;5030173;28;20059;-59
2022/05/03 06:09:26;;;;;;;31.95;20.63;;;;;;;;;;5027390;28;20498;-59
2022/05/03 06:11:52;;;;;;;32.67;20.17;;;;;;;;;;5028918;28;20033;-59
2022/05/03 06:14:18;;;;;;;38.97;24.13;;;;;;;;;;5029659;28;20099;-59
2022/05/03 06:16:57;;;;;;;37.78;23.52;;;;;;;;;;5029330;28;20037;-59
2022/05/03 06:19:23;;;;;;;38.17;24.95;;;;;;;;;;5022987;28;20053;-59
2022/05/03 06:21:50;;;;;;;41.20;25.73;;;;;;;;;;5028397;28;20125;-59
2022/05/03 06:24:16;;;;;;;41.28;25.25;;;;;;;;;;5009083;28;20457;-59
2022/05/03 06:26:42;;;;;;;49.95;29.25;;;;;;;;;;5026632;28;20037;-59
2022/05/03 06:29:09;;;;;;;45.78;29.75;;;;;;;;;;5034075;28;20043;-59
2022/05/03 06:31:42;;;;;;;42.15;27.35;;;;;;;;;;5029537;28;20517;-59
2022/05/03 06:34:08;;;;;;;44.20;27.30;;;;;;;;;;5023159;28;20525;-59
2022/05/03 06:36:35;;;;;;;51.70;31.17;;;;;;;;;;5024534;28;20042;-59
2022/05/03 06:39:01;;;;;;;53.83;31.45;;;;;;;;;;5025403;28;20064;-59
2022/05/03 06:41:27;;;;;;;52.58;31.65;;;;;;;;;;5026038;28;20511;-58
2022/05/03 06:43:56;;;;;;;57.70;32.13;;;;;;;;;;5020557;28;20112;-59
2022/05/03 06:46:22;;;;;;;54.47;33.33;;;;;;;;;;5026379;28;20037;-59
2022/05/03 06:48:48;;;;;;;50.65;32.30;;;;;;;;;;5026680;28;20044;-59
2022/05/03 06:51:14;;;;;;;51.25;31.50;;;;;;;;;;5024099;28;20495;-59
2022/05/03 06:53:41;;;;;;;52.55;32.05;;;;;;;;;;5023385;28;20491;-59
2022/05/03 06:56:07;;;;;;;52.35;30.05;;;;;;;;;;5022002;28;20411;-59
2022/05/03 06:58:33;;;;;;;49.80;29.75;;;;;;;;;;5026415;28;20080;-59
2022/05/03 07:01:07;;;;;;;53.45;30.88;;;;;;;;;;5026389;28;20034;-59
2022/05/03 07:03:33;;;;;;;53.97;30.58;;;;;;;;;;5028942;28;20151;-59
2022/05/03 07:05:59;;;;;;;53.38;30.65;;;;;;;;;;5020931;28;20160;-59
2022/05/03 07:08:25;;;;;;;53.58;31.77;;;;;;;;;;5020226;28;20041;-59
2022/05/03 07:10:51;;;;;;;54.65;31.33;;;;;;;;;;5025679;28;20577;-58
2022/05/03 07:13:23;;;;;;;54.13;31.48;;;;;;;;;;5027365;28;20137;-59
2022/05/03 07:15:57;;;;;;;54.85;31.02;;;;;;;;;;5025674;28;20034;-59
2022/05/03 07:23:53;;;;;;;52.35;30.83;;;;;;;;;;5023535;28;20038;-59
2022/05/03 07:26:19;;;;;;;53.00;29.65;;;;;;;;;;5008139;28;20041;-59
2022/05/03 07:28:51;;;;;;;52.65;29.80;;;;;;;;;;5023684;28;20511;-60
2022/05/03 07:31:17;;;;;;;60.72;29.88;;;;;;;;;;5018235;28;20549;-59
2022/05/03 07:33:44;;;;;;;61.13;30.88;;;;;;;;;;5024671;28;20116;-59
2022/05/03 07:36:10;;;;;;;56.92;30.08;;;;;;;;;;5022477;28;20487;-59
2022/05/03 07:38:36;;;;;;;55.95;29.73;;;;;;;;;;5056915;22;20041;-60
2022/05/03 07:41:02;;;;;;;53.65;30.23;;;;;;;;;;5046778;28;20041;-60
2022/05/03 07:43:29;;;;;;;57.72;29.35;;;;;;;;;;5047666;28;20075;-60
2022/05/03 07:45:55;;;;;;;60.53;30.95;;;;;;;;;;5043982;28;20045;-61
2022/05/03 07:48:21;;;;;;;60.28;32.17;;;;;;;;;;5038301;28;20048;-60
2022/05/03 07:50:47;;;;;;;62.90;31.33;;;;;;;;;;5050979;28;20068;-60
2022/05/03 07:53:13;;;;;;;68.75;32.30;;;;;;;;;;5051240;28;20063;-61
2022/05/03 07:55:40;;;;;;;73.28;32.85;;;;;;;;;;5049578;28;20447;-60
2022/05/03 07:58:06;;;;;;;75.13;33.83;;;;;;;;;;5041641;28;20395;-60
2022/05/03 08:00:32;;;;;;;75.13;34.40;;;;;;;;;;5031143;28;20034;-60
2022/05/03 08:02:58;;;;;;;76.07;34.20;;;;;;;;;;5039744;28;20032;-61
2022/05/03 08:05:24;;;;;;;72.55;32.75;;;;;;;;;;5047695;28;20403;-60
2022/05/03 08:07:51;;;;;;;75.00;33.80;;;;;;;;;;5030709;28;20041;-60
2022/05/03 08:10:17;;;;;;;76.03;33.88;;;;;;;;;;5042617;28;20454;-60
2022/05/03 08:12:43;;;;;;;72.40;33.53;;;;;;;;;;5046283;28;20120;-60
2022/05/03 08:15:10;;;;;;;70.10;33.22;;;;;;;;;;5051136;28;20036;-60
2022/05/03 08:17:36;;;;;;;97.55;38.90;;;;;;;;;;5045888;28;20462;-61
2022/05/03 08:20:02;;;;;;;94.75;37.67;;;;;;;;;;5050872;28;20044;-60
2022/05/03 08:22:28;;;;;;;78.80;34.13;;;;;;;;;;5031519;28;20043;-60
2022/05/03 08:24:54;;;;;;;78.55;33.65;;;;;;;;;;5041817;28;20029;-61
2022/05/03 08:27:21;;;;;;;71.50;32.40;;;;;;;;;;5032134;28;20121;-60
2022/05/03 08:29:47;;;;;;;67.32;31.30;;;;;;;;;;5035242;28;20037;-60
2022/05/03 08:32:12;;;;;;;69.47;30.15;;;;;;;;;;5041393;28;20103;-60
2022/05/03 08:34:38;;;;;;;63.42;29.67;;;;;;;;;;5042342;28;20087;-60
2022/05/03 08:42:34;;;;;;;54.10;26.27;;;;;;;;;;5049068;28;20041;-60
2022/05/03 08:45:01;;;;;;;51.78;26.02;;;;;;;;;;5049510;28;20398;-60
2022/05/03 08:47:30;;;;;;;47.95;22.73;;;;;;;;;;5045322;28;20116;-60
2022/05/03 08:50:10;;;;;;;48.53;25.20;;;;;;;;;;5053914;28;20124;-60
2022/05/03 08:52:42;;;;;;;43.50;22.88;;;;;;;;;;5048767;28;20438;-60
2022/05/03 08:55:08;;;;;;;42.08;21.95;;;;;;;;;;5050134;28;20518;-60
2022/05/03 08:57:34;;;;;;;38.80;21.27;;;;;;;;;;5041193;28;20120;-61
2022/05/03 09:00:04;;;;;;;43.17;22.25;;;;;;;;;;5042995;28;20060;-60
2022/05/03 09:02:31;;;;;;;41.60;22.17;;;;;;;;;;5049215;28;20049;-60
2022/05/03 09:04:57;;;;;;;41.28;22.42;;;;;;;;;;5042069;28;20076;-60
2022/05/03 09:07:25;;;;;;;37.83;21.33;;;;;;;;;;5033984;28;20077;-60
2022/05/03 09:09:51;;;;;;;32.70;17.25;;;;;;;;;;5033697;28;20069;-60
2022/05/03 09:12:31;;;;;;;31.55;17.85;;;;;;;;;;5045462;28;20108;-60
2022/05/03 09:14:59;;;;;;;31.42;16.90;;;;;;;;;;5051117;28;20104;-60
2022/05/03 09:17:35;;;;;;;24.58;13.65;;;;;;;;;;5044788;28;20045;-60
2022/05/03 09:23:46;;;;;;;19.75;12.90;;;;;;;;;;5037559;28;20060;-60
2022/05/03 09:25:37;;;;;;;17.88;9.68;;;;;;;;;;5046325;28;20044;-60
2022/05/03 09:28:06;;;;;;;17.77;10.10;;;;;;;;;;5044319;28;20128;-60
2022/05/03 09:30:32;;;;;;;16.67;10.05;;;;;;;;;;5040890;28;20073;-60
2022/05/03 09:32:58;;;;;;;16.00;10.15;;;;;;;;;;5035452;28;20087;-60
2022/05/03 09:35:32;;;;;;;20.80;8.48;;;;;;;;;;5049588;28;20048;-60
2022/05/03 09:37:58;;;;;;;14.70;7.80;;;;;;;;;;5040680;28;20049;-60
2022/05/03 09:40:25;;;;;;;15.05;7.85;;;;;;;;;;5035049;28;20095;-60
2022/05/03 09:42:55;;;;;;;15.07;8.02;;;;;;;;;;5052535;28;20041;-60
2022/05/03 09:45:22;;;;;;;17.45;7.65;;;;;;;;;;5041970;28;20487;-60
2022/05/03 09:47:52;;;;;;;16.95;7.57;;;;;;;;;;5039290;28;20067;-60
2022/05/03 09:50:39;;;;;;;12.43;6.90;;;;;;;;;;5043705;28;20522;-60
2022/05/03 09:53:09;;;;;;;16.85;8.25;;;;;;;;;;5044044;28;20044;-60
2022/05/03 09:55:39;;;;;;;17.30;7.35;;;;;;;;;;5040029;28;20033;-60
2022/05/03 09:58:07;;;;;;;17.13;7.55;;;;;;;;;;5032942;28;20476;-61
2022/05/03 10:00:33;;;;;;;14.70;7.90;;;;;;;;;;5032850;28;20055;-61
2022/05/03 10:03:00;;;;;;;14.82;7.55;;;;;;;;;;5041138;28;20053;-60
2022/05/03 10:05:26;;;;;;;18.50;8.13;;;;;;;;;;5052421;28;20037;-61
2022/05/03 10:07:54;;;;;;;17.25;7.50;;;;;;;;;;5052712;28;20045;-60
2022/05/03 10:10:20;;;;;;;18.73;8.05;;;;;;;;;;5052537;28;20052;-61
2022/05/03 10:12:47;;;;;;;15.73;7.60;;;;;;;;;;5051963;28;20120;-61
2022/05/03 10:15:14;;;;;;;22.02;8.15;;;;;;;;;;5042485;28;20041;-60
2022/05/03 10:20:42;;;;;;;18.23;8.70;;;;;;;;;;5032194;28;20450;-60
2022/05/03 10:23:28;;;;;;;23.48;9.30;;;;;;;;;;5034178;28;20041;-61
2022/05/03 10:26:05;;;;;;;23.33;8.90;;;;;;;;;;5036747;28;20045;-60
2022/05/03 10:28:50;;;;;;;18.50;8.40;;;;;;;;;;5032558;28;20372;-61
2022/05/03 10:31:16;;;;;;;22.90;9.98;;;;;;;;;;5037298;28;20044;-61
2022/05/03 10:33:42;;;;;;;20.23;7.97;;;;;;;;;;5046459;28;20040;-60
2022/05/03 10:36:27;;;;;;;23.67;9.52;;;;;;;;;;5034396;28;20224;-60
2022/05/03 10:38:53;;;;;;;26.23;9.90;;;;;;;;;;5032134;28;20064;-60
2022/05/03 10:41:25;;;;;;;22.17;9.85;;;;;;;;;;5032076;28;20499;-60
2022/05/03 10:43:51;;;;;;;23.40;9.90;;;;;;;;;;5047535;28;20033;-61
2022/05/03 10:46:21;;;;;;;29.30;11.05;;;;;;;;;;5041349;28;20037;-60
2022/05/03 10:49:26;;;;;;;22.53;8.93;;;;;;;;;;5037213;28;20495;-60
2022/05/03 10:51:52;;;;;;;26.65;8.93;;;;;;;;;;4970398;28;20378;-60
2022/05/03 10:54:17;;;;;;;27.17;8.15;;;;;;;;;;4979847;28;20038;-60
2022/05/03 10:57:07;;;;;;;23.33;8.98;;;;;;;;;;5009773;28;20462;-60
2022/05/03 10:59:45;;;;;;;20.20;7.30;;;;;;;;;;5036252;28;20080;-61
2022/05/03 11:02:11;;;;;;;27.65;8.38;;;;;;;;;;5041553;28;20041;-60
2022/05/03 11:04:57;;;;;;;22.33;7.35;;;;;;;;;;5043288;28;20187;-61
2022/05/03 11:07:24;;;;;;;28.10;8.45;;;;;;;;;;5051292;28;20510;-60
2022/05/03 11:09:50;;;;;;;22.05;7.22;;;;;;;;;;5051279;28;20033;-60
2022/05/03 11:12:16;;;;;;;19.40;6.70;;;;;;;;;;5051016;28;20037;-60
2022/05/03 11:14:45;;;;;;;17.98;7.07;;;;;;;;;;5050472;28;20047;-60
2022/05/03 11:17:14;;;;;;;17.05;7.05;;;;;;;;;;5042778;28;20492;-60
2022/05/03 11:19:51;;;;;;;23.05;7.15;;;;;;;;;;5051273;28;20048;-61
2022/05/03 11:22:24;;;;;;;18.88;7.43;;;;;;;;;;5050753;28;20045;-60
2022/05/03 11:24:51;;;;;;;15.73;6.55;;;;;;;;;;5051545;28;20069;-60
2022/05/03 11:27:18;;;;;;;19.55;7.55;;;;;;;;;;5032532;28;20041;-60
2022/05/03 11:29:47;;;;;;;14.73;6.18;;;;;;;;;;5033040;28;20162;-60
2022/05/03 11:32:15;;;;;;;18.75;6.63;;;;;;;;;;5040973;28;20079;-60
2022/05/03 11:34:42;;;;;;;11.52;5.30;;;;;;;;;;5042416;28;20507;-60
2022/05/03 11:37:08;;;;;;;11.88;5.80;;;;;;;;;;5033940;28;20084;-60
2022/05/03 11:39:36;;;;;;;14.13;6.03;;;;;;;;;;5031477;28;20049;-60
2022/05/03 11:42:02;;;;;;;14.55;6.00;;;;;;;;;;5031237;28;20050;-60
2022/05/03 11:44:28;;;;;;;14.35;5.45;;;;;;;;;;5048552;28;20410;-61
2022/05/03 11:46:54;;;;;;;12.70;5.65;;;;;;;;;;5043689;28;20029;-61
2022/05/03 11:49:21;;;;;;;12.18;5.20;;;;;;;;;;5031516;28;20418;-60
2022/05/03 11:57:25;;;;;;;14.05;4.75;;;;;;;;;;5032339;28;20514;-60
2022/05/03 11:59:52;;;;;;;13.30;5.10;;;;;;;;;;5038635;28;20044;-60
2022/05/03 12:02:30;;;;;;;14.13;5.32;;;;;;;;;;5039337;28;20056;-61
2022/05/03 12:05:02;;;;;;;13.70;5.05;;;;;;;;;;5041774;28;20398;-60
2022/05/03 12:07:29;;;;;;;12.90;5.40;;;;;;;;;;5042312;28;20496;-60
2022/05/03 12:09:55;;;;;;;12.98;5.20;;;;;;;;;;5051028;28;20116;-60
2022/05/03 12:12:43;;;;;;;11.90;5.60;;;;;;;;;;5048855;28;20044;-60
2022/05/03 12:15:15;;;;;;;13.50;4.78;;;;;;;;;;5037496;28;20248;-61
2022/05/03 12:17:52;;;;;;;11.40;5.60;;;;;;;;;;5054536;28;20581;-60
2022/05/03 12:20:18;;;;;;;12.02;4.53;;;;;;;;;;5054702;28;20048;-60
2022/05/03 12:22:44;;;;;;;15.98;4.90;;;;;;;;;;5054326;28;20040;-60
2022/05/03 12:25:10;;;;;;;12.77;5.13;;;;;;;;;;5053290;28;20036;-60
2022/05/03 12:27:36;;;;;;;10.93;4.25;;;;;;;;;;5037349;28;20033;-61
2022/05/03 12:30:11;;;;;;;13.75;5.10;;;;;;;;;;5042877;28;20033;-61
2022/05/03 12:32:39;;;;;;;12.23;4.55;;;;;;;;;;5036681;28;20045;-60
2022/05/03 12:35:05;;;;;;;12.32;4.45;;;;;;;;;;5045612;28;20052;-60
2022/05/03 12:37:31;;;;;;;15.70;4.65;;;;;;;;;;5032348;28;20060;-60
2022/05/03 12:40:01;;;;;;;14.57;4.43;;;;;;;;;;5056722;28;20040;-60
2022/05/03 12:42:27;;;;;;;11.85;4.88;;;;;;;;;;5053793;28;20041;-60
2022/05/03 12:44:57;;;;;;;8.60;4.32;;;;;;;;;;5051298;28;20041;-60
2022/05/03 12:47:24;;;;;;;12.60;4.43;;;;;;;;;;5059302;28;20032;-60
2022/05/03 12:49:50;;;;;;;12.05;4.20;;;;;;;;;;5034271;28;20046;-60
2022/05/03 12:52:16;;;;;;;13.48;4.53;;;;;;;;;;5046245;28;20409;-60
2022/05/03 12:54:43;;;;;;;13.32;4.68;;;;;;;;;;5045110;28;20045;-60
2022/05/03 12:59:55;;;;;;;12.52;4.85;;;;;;;;;;5056414;28;20554;-60
2022/05/03 13:02:22;;;;;;;11.57;4.60;;;;;;;;;;5073614;28;20506;-60
2022/05/03 13:04:48;;;;;;;10.25;4.43;;;;;;;;;;5045118;28;20091;-59
2022/05/03 13:07:14;;;;;;;14.80;4.60;;;;;;;;;;5054801;28;20390;-60
2022/05/03 13:09:40;;;;;;;13.40;4.35;;;;;;;;;;5066371;28;20061;-59
2022/05/03 13:12:06;;;;;;;11.30;4.25;;;;;;;;;;5053503;28;20099;-60
2022/05/03 13:14:33;;;;;;;10.68;4.10;;;;;;;;;;5056701;28;20071;-60
2022/05/03 13:16:59;;;;;;;9.65;3.80;;;;;;;;;;5045631;28;20036;-60
2022/05/03 13:19:26;;;;;;;11.38;4.50;;;;;;;;;;5073531;28;20490;-59
2022/05/03 13:21:54;;;;;;;13.48;4.25;;;;;;;;;;5072834;28;20051;-59
2022/05/03 13:24:21;;;;;;;9.82;3.90;;;;;;;;;;5052918;28;20470;-59
2022/05/03 13:26:47;;;;;;;14.13;3.92;;;;;;;;;;5034941;28;20125;-59
2022/05/03 13:29:15;;;;;;;14.70;3.92;;;;;;;;;;5059706;28;20402;-59
2022/05/03 13:31:41;;;;;;;8.70;3.70;;;;;;;;;;5059030;28;20041;-59
2022/05/03 13:34:08;;;;;;;11.55;4.30;;;;;;;;;;5044357;28;20385;-59
2022/05/03 13:42:04;;;;;;;10.13;3.80;;;;;;;;;;5014053;28;20491;-60
2022/05/03 13:44:30;;;;;;;11.50;3.50;;;;;;;;;;5022789;28;20388;-60
2022/05/03 13:46:58;;;;;;;7.80;3.25;;;;;;;;;;5028360;28;20472;-60
2022/05/03 13:49:24;;;;;;;9.15;3.80;;;;;;;;;;5027829;28;20037;-60
2022/05/03 13:51:50;;;;;;;10.23;3.53;;;;;;;;;;5027870;28;20072;-60
2022/05/03 13:54:16;;;;;;;8.88;3.28;;;;;;;;;;5029904;28;20046;-60
2022/05/03 13:56:42;;;;;;;10.15;3.03;;;;;;;;;;5027486;28;20092;-60
2022/05/03 13:59:08;;;;;;;6.50;2.70;;;;;;;;;;5025486;28;20056;-60
2022/05/03 14:01:34;;;;;;;6.13;2.90;;;;;;;;;;5023557;28;20483;-60
2022/05/03 14:04:02;;;;;;;8.90;2.83;;;;;;;;;;5028931;28;20080;-59
2022/05/03 14:06:28;;;;;;;12.75;3.42;;;;;;;;;;5029484;28;20042;-59
2022/05/03 14:08:54;;;;;;;11.45;2.95;;;;;;;;;;5022743;28;20511;-59
2022/05/03 14:11:20;;;;;;;9.00;2.90;;;;;;;;;;5009869;28;20077;-59
2022/05/03 14:13:47;;;;;;;7.95;2.67;;;;;;;;;;5024228;28;20527;-59
2022/05/03 14:16:16;;;;;;;10.07;2.72;;;;;;;;;;5019416;28;20073;-60
2022/05/03 14:18:42;;;;;;;9.43;2.70;;;;;;;;;;5027879;28;20499;-60
2022/05/03 14:21:08;;;;;;;7.30;2.70;;;;;;;;;;5029997;28;20037;-60
2022/05/03 14:23:35;;;;;;;6.95;2.70;;;;;;;;;;5027706;28;20038;-59
2022/05/03 14:26:01;;;;;;;8.68;3.15;;;;;;;;;;5026006;28;20384;-60
2022/05/03 14:28:27;;;;;;;7.63;2.80;;;;;;;;;;5030048;28;20112;-60
2022/05/03 14:30:53;;;;;;;6.43;2.30;;;;;;;;;;5011856;28;20041;-60
2022/05/03 14:33:19;;;;;;;7.68;2.83;;;;;;;;;;5026054;28;20056;-60
2022/05/03 14:35:46;;;;;;;8.18;2.65;;;;;;;;;;5030972;28;20042;-60
2022/05/03 14:38:12;;;;;;;6.57;2.65;;;;;;;;;;5026886;28;20048;-60
2022/05/03 14:40:38;;;;;;;10.30;3.63;;;;;;;;;;5021641;28;20025;-60
2022/05/03 14:43:06;;;;;;;7.03;2.65;;;;;;;;;;5025580;28;20084;-60
2022/05/03 14:45:32;;;;;;;7.13;2.60;;;;;;;;;;5018935;28;20037;-60
2022/05/03 14:47:59;;;;;;;11.73;3.25;;;;;;;;;;5019645;28;20057;-60
2022/05/03 14:50:25;;;;;;;9.05;2.55;;;;;;;;;;5028769;28;20106;-60
2022/05/03 14:52:52;;;;;;;11.55;2.80;;;;;;;;;;5026700;28;20091;-60
2022/05/03 14:55:18;;;;;;;7.13;2.50;;;;;;;;;;5025028;28;20049;-59
2022/05/03 15:03:14;;;;;;;8.63;2.75;;;;;;;;;;5025859;28;20495;-61
2022/05/03 15:05:40;;;;;;;10.73;2.67;;;;;;;;;;5029029;28;20120;-60
2022/05/03 15:08:07;;;;;;;9.88;2.85;;;;;;;;;;5023514;28;20041;-60
2022/05/03 15:10:34;;;;;;;10.48;2.85;;;;;;;;;;5022502;28;20030;-60
2022/05/03 15:13:01;;;;;;;11.73;2.65;;;;;;;;;;5024880;28;20500;-60
2022/05/03 15:15:27;;;;;;;7.53;2.70;;;;;;;;;;5004209;28;20076;-61
2022/05/03 15:17:53;;;;;;;7.88;2.42;;;;;;;;;;5025543;28;20044;-60
2022/05/03 15:20:20;;;;;;;11.80;2.80;;;;;;;;;;5030135;28;20041;-60
2022/05/03 15:25:31;;;;;;;7.50;2.45;;;;;;;;;;5026243;28;20065;-60
2022/05/03 15:27:57;;;;;;;5.97;2.55;;;;;;;;;;5017525;28;20140;-60